SSEC Globe Logo

Space Science and Engineering Center

Regional Terminal Forecasts

KMSN 260528Z 2606/2706 29007KT P6SM OVC015 FM270000 29005KT
     P6SM BKN016 OVC025=
KMKE 260528Z 2606/2712 28007KT P6SM OVC008 FM260900 28007KT
     P6SM OVC018 FM261600 28010KT P6SM SCT018 OVC023
     FM270000 28007KT P6SM OVC018 FM270600 29006KT P6SM
     OVC025=
KGRB 260602Z 2606/2706 29007KT 6SM -SN BR SCT007 OVC035
     FM261000 29006KT P6SM SCT008 BKN015 FM261500 30009KT
     P6SM OVC020 FM261900 29006KT P6SM OVC025 FM270300
     35003KT P6SM OVC025=
KAUW 260520Z 2606/2706 31004KT 6SM -SHSN BR SCT008 OVC015
     FM260700 31005KT 6SM -SHSN BR SCT006 BKN010 FM261400
     31005KT P6SM OVC010 FM262100 31003KT P6SM OVC011
     FM262300 VRB03KT P6SM OVC015=
KEAU 260520Z 2606/2706 28005KT P6SM OVC020 FM260900 26003KT
     P6SM OVC008 FM262000 30003KT P6SM OVC010 FM270300
     33002KT P6SM OVC008=
KLSE 260520Z 2606/2706 30006KT P6SM OVC015=
KDBQ 260520Z 2606/2706 28010KT P6SM SCT015 BKN050 TEMPO
     2608/2611 BKN015 FM261100 26004KT 4SM BR OVC003
     FM261600 25004KT 5SM BR BKN006=
TAF KRFD 260520Z 2606/2706 27010KT 6SM BR OVC012 TEMPO
     2606/2609 -DZSN FM261000 27008KT P6SM OVC012=
KORD 260520Z 2606/2712 27010KT 6SM BR OVC008 TEMPO 2606/2610
     5SM -DZSN FM261200 27010KT P6SM SCT008 OVC012 FM270600
     26008KT P6SM OVC020=